sensor_id;sensor_type;location;lat;lon;timestamp;temperature;humidity
24252;DHT22;12380;51.118;4.176;2023-06-10T00:02:10;22.70;99.90
24252;DHT22;12380;51.118;4.176;2023-06-10T00:04:39;22.70;99.90
24252;DHT22;12380;51.118;4.176;2023-06-10T00:07:05;22.60;99.90
24252;DHT22;12380;51.118;4.176;2023-06-10T00:09:37;22.60;99.90
24252;DHT22;12380;51.118;4.176;2023-06-10T00:12:05;22.50;99.90
24252;DHT22;12380;51.118;4.176;2023-06-10T00:14:35;22.50;99.90
24252;DHT22;12380;51.118;4.176;2023-06-10T00:17:00;22.50;99.90
24252;DHT22;12380;51.118;4.176;2023-06-10T00:19:26;22.40;99.90
24252;DHT22;12380;51.118;4.176;2023-06-10T00:21:55;22.30;99.90
24252;DHT22;12380;51.118;4.176;2023-06-10T00:24:21;22.30;99.90
24252;DHT22;12380;51.118;4.176;2023-06-10T00:26:47;22.30;99.90
24252;DHT22;12380;51.118;4.176;2023-06-10T00:29:13;22.20;99.90
24252;DHT22;12380;51.118;4.176;2023-06-10T00:31:39;22.30;99.90
24252;DHT22;12380;51.118;4.176;2023-06-10T00:34:05;22.10;99.90
24252;DHT22;12380;51.118;4.176;2023-06-10T00:36:30;22.10;99.90
24252;DHT22;12380;51.118;4.176;2023-06-10T00:38:56;22.10;99.90
24252;DHT22;12380;51.118;4.176;2023-06-10T00:41:22;22.00;99.90
24252;DHT22;12380;51.118;4.176;2023-06-10T00:43:48;22.00;99.90
24252;DHT22;12380;51.118;4.176;2023-06-10T00:46:13;21.90;99.90
24252;DHT22;12380;51.118;4.176;2023-06-10T00:48:40;21.90;99.90
24252;DHT22;12380;51.118;4.176;2023-06-10T00:51:06;21.70;99.90
24252;DHT22;12380;51.118;4.176;2023-06-10T00:53:32;21.80;99.90
24252;DHT22;12380;51.118;4.176;2023-06-10T00:55:57;21.80;99.90
24252;DHT22;12380;51.118;4.176;2023-06-10T00:58:23;21.80;99.90
24252;DHT22;12380;51.118;4.176;2023-06-10T01:00:49;21.80;99.90
24252;DHT22;12380;51.118;4.176;2023-06-10T01:03:15;21.90;99.90
24252;DHT22;12380;51.118;4.176;2023-06-10T01:05:42;21.70;99.90
24252;DHT22;12380;51.118;4.176;2023-06-10T01:11:17;21.80;99.90
24252;DHT22;12380;51.118;4.176;2023-06-10T01:13:28;21.80;99.90
24252;DHT22;12380;51.118;4.176;2023-06-10T01:15:58;21.80;99.90
24252;DHT22;12380;51.118;4.176;2023-06-10T01:18:29;21.60;99.90
24252;DHT22;12380;51.118;4.176;2023-06-10T01:20:55;21.60;99.90
24252;DHT22;12380;51.118;4.176;2023-06-10T01:23:21;21.50;99.90
24252;DHT22;12380;51.118;4.176;2023-06-10T01:25:47;21.50;99.90
24252;DHT22;12380;51.118;4.176;2023-06-10T01:28:36;21.40;99.90
24252;DHT22;12380;51.118;4.176;2023-06-10T01:33:41;21.60;99.90
24252;DHT22;12380;51.118;4.176;2023-06-10T01:36:08;21.50;99.90
24252;DHT22;12380;51.118;4.176;2023-06-10T01:38:38;21.40;99.90
24252;DHT22;12380;51.118;4.176;2023-06-10T01:41:05;21.40;99.90
24252;DHT22;12380;51.118;4.176;2023-06-10T01:43:34;21.40;99.90
24252;DHT22;12380;51.118;4.176;2023-06-10T01:46:00;21.30;99.90
24252;DHT22;12380;51.118;4.176;2023-06-10T01:48:30;21.20;99.90
24252;DHT22;12380;51.118;4.176;2023-06-10T01:50:55;21.10;99.90
24252;DHT22;12380;51.118;4.176;2023-06-10T01:53:22;21.20;99.90
24252;DHT22;12380;51.118;4.176;2023-06-10T01:55:47;21.10;99.90
24252;DHT22;12380;51.118;4.176;2023-06-10T01:58:13;21.10;99.90
24252;DHT22;12380;51.118;4.176;2023-06-10T02:00:39;21.10;99.90
24252;DHT22;12380;51.118;4.176;2023-06-10T02:03:07;21.10;99.90
24252;DHT22;12380;51.118;4.176;2023-06-10T02:05:32;21.20;99.90
24252;DHT22;12380;51.118;4.176;2023-06-10T02:07:58;21.10;99.90
24252;DHT22;12380;51.118;4.176;2023-06-10T02:10:26;21.00;99.90
24252;DHT22;12380;51.118;4.176;2023-06-10T02:12:52;20.90;99.90
24252;DHT22;12380;51.118;4.176;2023-06-10T02:15:20;21.00;99.90
24252;DHT22;12380;51.118;4.176;2023-06-10T02:17:48;21.00;99.90
24252;DHT22;12380;51.118;4.176;2023-06-10T02:20:17;20.90;99.90
24252;DHT22;12380;51.118;4.176;2023-06-10T02:22:42;21.00;99.90
24252;DHT22;12380;51.118;4.176;2023-06-10T02:25:08;20.90;99.90
24252;DHT22;12380;51.118;4.176;2023-06-10T02:27:36;20.90;99.90
24252;DHT22;12380;51.118;4.176;2023-06-10T02:30:04;20.90;99.90
24252;DHT22;12380;51.118;4.176;2023-06-10T02:32:30;20.80;99.90
24252;DHT22;12380;51.118;4.176;2023-06-10T02:34:55;20.90;99.90
24252;DHT22;12380;51.118;4.176;2023-06-10T02:37:21;21.00;99.90
24252;DHT22;12380;51.118;4.176;2023-06-10T02:39:46;20.90;99.90
24252;DHT22;12380;51.118;4.176;2023-06-10T02:42:12;20.70;99.90
24252;DHT22;12380;51.118;4.176;2023-06-10T02:44:38;20.60;99.90
24252;DHT22;12380;51.118;4.176;2023-06-10T02:47:03;20.60;99.90
24252;DHT22;12380;51.118;4.176;2023-06-10T02:49:29;20.50;99.90
24252;DHT22;12380;51.118;4.176;2023-06-10T02:51:55;20.50;99.90
24252;DHT22;12380;51.118;4.176;2023-06-10T02:54:22;20.50;99.90
24252;DHT22;12380;51.118;4.176;2023-06-10T02:56:51;20.40;99.90
24252;DHT22;12380;51.118;4.176;2023-06-10T02:59:17;20.50;99.90
24252;DHT22;12380;51.118;4.176;2023-06-10T03:01:42;20.40;99.90
24252;DHT22;12380;51.118;4.176;2023-06-10T03:04:08;20.40;99.90
24252;DHT22;12380;51.118;4.176;2023-06-10T03:06:34;20.30;99.90
24252;DHT22;12380;51.118;4.176;2023-06-10T03:09:00;20.30;99.90
24252;DHT22;12380;51.118;4.176;2023-06-10T03:11:28;20.40;99.90
24252;DHT22;12380;51.118;4.176;2023-06-10T03:13:56;20.30;99.90
24252;DHT22;12380;51.118;4.176;2023-06-10T03:16:22;20.40;99.90
24252;DHT22;12380;51.118;4.176;2023-06-10T03:18:50;20.50;99.90
24252;DHT22;12380;51.118;4.176;2023-06-10T03:21:16;20.40;99.90
24252;DHT22;12380;51.118;4.176;2023-06-10T03:23:41;20.30;99.90
24252;DHT22;12380;51.118;4.176;2023-06-10T03:26:07;20.40;99.90
24252;DHT22;12380;51.118;4.176;2023-06-10T03:28:33;20.30;99.90
24252;DHT22;12380;51.118;4.176;2023-06-10T03:30:59;20.30;99.90
24252;DHT22;12380;51.118;4.176;2023-06-10T03:33:26;20.20;99.90
24252;DHT22;12380;51.118;4.176;2023-06-10T03:35:52;20.30;99.90
24252;DHT22;12380;51.118;4.176;2023-06-10T03:38:18;20.30;99.90
24252;DHT22;12380;51.118;4.176;2023-06-10T03:40:45;20.30;99.90
24252;DHT22;12380;51.118;4.176;2023-06-10T03:43:11;20.30;99.90
24252;DHT22;12380;51.118;4.176;2023-06-10T03:45:36;20.30;99.90
24252;DHT22;12380;51.118;4.176;2023-06-10T03:48:02;20.40;99.90
24252;DHT22;12380;51.118;4.176;2023-06-10T03:50:29;20.30;99.90
24252;DHT22;12380;51.118;4.176;2023-06-10T03:52:54;20.50;99.90
24252;DHT22;12380;51.118;4.176;2023-06-10T03:55:20;20.40;99.90
24252;DHT22;12380;51.118;4.176;2023-06-10T03:57:47;20.20;99.90
24252;DHT22;12380;51.118;4.176;2023-06-10T04:00:15;20.30;99.90
24252;DHT22;12380;51.118;4.176;2023-06-10T04:02:43;20.30;99.90
24252;DHT22;12380;51.118;4.176;2023-06-10T04:05:12;20.30;99.90
24252;DHT22;12380;51.118;4.176;2023-06-10T04:07:38;20.20;99.90
24252;DHT22;12380;51.118;4.176;2023-06-10T04:10:08;20.30;99.90
24252;DHT22;12380;51.118;4.176;2023-06-10T04:12:34;20.40;99.90
24252;DHT22;12380;51.118;4.176;2023-06-10T04:15:02;20.40;99.90
24252;DHT22;12380;51.118;4.176;2023-06-10T04:17:28;20.40;99.90
24252;DHT22;12380;51.118;4.176;2023-06-10T04:19:54;20.40;99.90
24252;DHT22;12380;51.118;4.176;2023-06-10T04:22:20;20.40;99.90
24252;DHT22;12380;51.118;4.176;2023-06-10T04:24:46;20.60;99.90
24252;DHT22;12380;51.118;4.176;2023-06-10T04:27:11;20.50;99.90
24252;DHT22;12380;51.118;4.176;2023-06-10T04:29:37;20.60;99.90
24252;DHT22;12380;51.118;4.176;2023-06-10T04:32:03;20.50;99.90
24252;DHT22;12380;51.118;4.176;2023-06-10T04:34:30;20.60;99.90
24252;DHT22;12380;51.118;4.176;2023-06-10T04:36:58;20.60;99.90
24252;DHT22;12380;51.118;4.176;2023-06-10T04:39:24;20.50;99.90
24252;DHT22;12380;51.118;4.176;2023-06-10T04:41:50;20.70;99.90
24252;DHT22;12380;51.118;4.176;2023-06-10T04:44:15;20.70;99.90
24252;DHT22;12380;51.118;4.176;2023-06-10T04:46:44;20.60;99.90
24252;DHT22;12380;51.118;4.176;2023-06-10T04:49:09;20.70;99.90
24252;DHT22;12380;51.118;4.176;2023-06-10T04:51:35;20.60;99.90
24252;DHT22;12380;51.118;4.176;2023-06-10T04:54:01;20.60;99.90
24252;DHT22;12380;51.118;4.176;2023-06-10T04:56:32;20.60;99.90
24252;DHT22;12380;51.118;4.176;2023-06-10T04:58:57;20.80;99.90
24252;DHT22;12380;51.118;4.176;2023-06-10T05:01:23;20.80;99.90
24252;DHT22;12380;51.118;4.176;2023-06-10T05:03:51;20.90;99.90
24252;DHT22;12380;51.118;4.176;2023-06-10T05:06:17;20.90;99.90
24252;DHT22;12380;51.118;4.176;2023-06-10T05:08:45;21.00;99.90
24252;DHT22;12380;51.118;4.176;2023-06-10T05:11:10;21.10;99.90
24252;DHT22;12380;51.118;4.176;2023-06-10T05:13:36;21.20;99.90
24252;DHT22;12380;51.118;4.176;2023-06-10T05:16:01;21.30;99.90
24252;DHT22;12380;51.118;4.176;2023-06-10T05:18:29;21.20;99.90
24252;DHT22;12380;51.118;4.176;2023-06-10T05:20:54;21.30;99.90
24252;DHT22;12380;51.118;4.176;2023-06-10T05:23:20;21.30;99.90
24252;DHT22;12380;51.118;4.176;2023-06-10T05:25:46;21.50;99.90
24252;DHT22;12380;51.118;4.176;2023-06-10T05:28:13;21.50;99.90
24252;DHT22;12380;51.118;4.176;2023-06-10T05:30:41;21.70;99.90
24252;DHT22;12380;51.118;4.176;2023-06-10T05:33:09;21.80;99.90
24252;DHT22;12380;51.118;4.176;2023-06-10T05:35:37;21.90;99.90
24252;DHT22;12380;51.118;4.176;2023-06-10T05:38:02;22.10;99.90
24252;DHT22;12380;51.118;4.176;2023-06-10T05:40:28;22.00;99.90
24252;DHT22;12380;51.118;4.176;2023-06-10T05:42:53;22.30;99.90
24252;DHT22;12380;51.118;4.176;2023-06-10T05:45:22;22.30;99.90
24252;DHT22;12380;51.118;4.176;2023-06-10T05:47:47;22.60;99.90
24252;DHT22;12380;51.118;4.176;2023-06-10T05:50:13;22.60;99.90
24252;DHT22;12380;51.118;4.176;2023-06-10T05:52:40;22.80;99.90
24252;DHT22;12380;51.118;4.176;2023-06-10T05:55:06;23.00;99.90
24252;DHT22;12380;51.118;4.176;2023-06-10T05:57:34;23.10;99.90
24252;DHT22;12380;51.118;4.176;2023-06-10T06:00:02;23.00;99.90
24252;DHT22;12380;51.118;4.176;2023-06-10T06:02:30;23.30;99.90
24252;DHT22;12380;51.118;4.176;2023-06-10T06:04:56;23.60;99.90
24252;DHT22;12380;51.118;4.176;2023-06-10T06:07:21;23.60;99.90
24252;DHT22;12380;51.118;4.176;2023-06-10T06:09:47;23.70;99.90
24252;DHT22;12380;51.118;4.176;2023-06-10T06:12:17;23.90;99.90
24252;DHT22;12380;51.118;4.176;2023-06-10T06:14:45;23.90;99.90
24252;DHT22;12380;51.118;4.176;2023-06-10T06:17:11;23.90;99.90
24252;DHT22;12380;51.118;4.176;2023-06-10T06:19:37;24.10;99.90
24252;DHT22;12380;51.118;4.176;2023-06-10T06:22:02;24.00;99.90
24252;DHT22;12380;51.118;4.176;2023-06-10T06:24:28;24.30;99.90
24252;DHT22;12380;51.118;4.176;2023-06-10T06:26:53;24.80;99.90
24252;DHT22;12380;51.118;4.176;2023-06-10T06:29:19;24.80;99.90
24252;DHT22;12380;51.118;4.176;2023-06-10T06:31:44;24.80;99.90
24252;DHT22;12380;51.118;4.176;2023-06-10T06:34:12;25.00;99.90
24252;DHT22;12380;51.118;4.176;2023-06-10T06:36:38;25.30;99.90
24252;DHT22;12380;51.118;4.176;2023-06-10T06:39:03;25.20;99.90
24252;DHT22;12380;51.118;4.176;2023-06-10T06:41:29;25.00;99.90
24252;DHT22;12380;51.118;4.176;2023-06-10T06:43:55;25.20;99.90
24252;DHT22;12380;51.118;4.176;2023-06-10T06:46:21;25.30;99.90
24252;DHT22;12380;51.118;4.176;2023-06-10T06:48:47;25.30;99.90
24252;DHT22;12380;51.118;4.176;2023-06-10T06:51:16;25.30;99.90
24252;DHT22;12380;51.118;4.176;2023-06-10T06:53:41;25.30;99.90
24252;DHT22;12380;51.118;4.176;2023-06-10T06:56:10;25.30;99.90
24252;DHT22;12380;51.118;4.176;2023-06-10T06:58:36;25.60;99.90
24252;DHT22;12380;51.118;4.176;2023-06-10T07:01:04;25.50;99.90
24252;DHT22;12380;51.118;4.176;2023-06-10T07:03:32;25.60;99.90
24252;DHT22;12380;51.118;4.176;2023-06-10T07:05:57;25.70;99.90
24252;DHT22;12380;51.118;4.176;2023-06-10T07:08:23;25.70;99.90
24252;DHT22;12380;51.118;4.176;2023-06-10T07:10:48;26.20;99.90
24252;DHT22;12380;51.118;4.176;2023-06-10T07:13:14;26.30;99.90
24252;DHT22;12380;51.118;4.176;2023-06-10T07:15:40;26.90;99.90
24252;DHT22;12380;51.118;4.176;2023-06-10T07:18:05;27.40;99.90
24252;DHT22;12380;51.118;4.176;2023-06-10T07:20:31;27.60;99.90
24252;DHT22;12380;51.118;4.176;2023-06-10T07:22:57;27.80;99.90
24252;DHT22;12380;51.118;4.176;2023-06-10T07:25:22;27.80;99.90
24252;DHT22;12380;51.118;4.176;2023-06-10T07:27:48;28.20;99.90
24252;DHT22;12380;51.118;4.176;2023-06-10T07:30:13;28.40;99.90
24252;DHT22;12380;51.118;4.176;2023-06-10T07:32:41;28.40;99.90
24252;DHT22;12380;51.118;4.176;2023-06-10T07:35:09;28.40;99.80
24252;DHT22;12380;51.118;4.176;2023-06-10T07:37:36;28.20;99.90
24252;DHT22;12380;51.118;4.176;2023-06-10T07:40:01;27.90;99.90
24252;DHT22;12380;51.118;4.176;2023-06-10T07:42:31;28.40;99.90
24252;DHT22;12380;51.118;4.176;2023-06-10T07:44:57;28.30;99.80
24252;DHT22;12380;51.118;4.176;2023-06-10T07:47:22;28.30;99.90
24252;DHT22;12380;51.118;4.176;2023-06-10T07:49:48;28.50;99.90
24252;DHT22;12380;51.118;4.176;2023-06-10T07:52:13;28.40;99.80
24252;DHT22;12380;51.118;4.176;2023-06-10T07:54:39;28.50;99.50
24252;DHT22;12380;51.118;4.176;2023-06-10T07:57:05;28.90;99.90
24252;DHT22;12380;51.118;4.176;2023-06-10T07:59:32;29.10;98.70
24252;DHT22;12380;51.118;4.176;2023-06-10T08:01:57;29.30;98.60
24252;DHT22;12380;51.118;4.176;2023-06-10T08:04:23;29.50;98.90
24252;DHT22;12380;51.118;4.176;2023-06-10T08:06:49;30.00;96.60
24252;DHT22;12380;51.118;4.176;2023-06-10T08:09:17;30.10;97.30
24252;DHT22;12380;51.118;4.176;2023-06-10T08:11:45;30.30;95.70
24252;DHT22;12380;51.118;4.176;2023-06-10T08:14:11;29.90;96.60
24252;DHT22;12380;51.118;4.176;2023-06-10T08:16:37;30.00;96.10
24252;DHT22;12380;51.118;4.176;2023-06-10T08:19:02;30.10;96.80
24252;DHT22;12380;51.118;4.176;2023-06-10T08:21:28;30.50;95.10
24252;DHT22;12380;51.118;4.176;2023-06-10T08:23:54;31.20;94.10
24252;DHT22;12380;51.118;4.176;2023-06-10T08:26:19;30.90;93.50
24252;DHT22;12380;51.118;4.176;2023-06-10T08:28:45;31.20;95.00
24252;DHT22;12380;51.118;4.176;2023-06-10T08:31:10;31.60;94.20
24252;DHT22;12380;51.118;4.176;2023-06-10T08:33:36;31.80;92.40
24252;DHT22;12380;51.118;4.176;2023-06-10T08:36:02;31.70;87.30
24252;DHT22;12380;51.118;4.176;2023-06-10T08:38:27;31.80;89.60
24252;DHT22;12380;51.118;4.176;2023-06-10T08:40:56;31.50;84.90
24252;DHT22;12380;51.118;4.176;2023-06-10T08:43:30;31.50;88.90
24252;DHT22;12380;51.118;4.176;2023-06-10T08:45:58;31.90;87.50
24252;DHT22;12380;51.118;4.176;2023-06-10T08:48:25;32.40;85.60
24252;DHT22;12380;51.118;4.176;2023-06-10T08:50:52;32.60;86.30
24252;DHT22;12380;51.118;4.176;2023-06-10T08:53:18;32.70;81.50
24252;DHT22;12380;51.118;4.176;2023-06-10T08:55:46;32.70;84.70
24252;DHT22;12380;51.118;4.176;2023-06-10T08:58:14;33.20;81.00
24252;DHT22;12380;51.118;4.176;2023-06-10T09:00:40;33.30;81.30
24252;DHT22;12380;51.118;4.176;2023-06-10T09:03:06;32.90;74.10
24252;DHT22;12380;51.118;4.176;2023-06-10T09:05:34;33.20;81.60
24252;DHT22;12380;51.118;4.176;2023-06-10T09:08:02;33.10;72.80
24252;DHT22;12380;51.118;4.176;2023-06-10T09:10:28;32.80;75.90
24252;DHT22;12380;51.118;4.176;2023-06-10T09:12:54;33.00;77.00
24252;DHT22;12380;51.118;4.176;2023-06-10T09:15:20;33.10;71.00
24252;DHT22;12380;51.118;4.176;2023-06-10T09:17:49;33.70;72.60
24252;DHT22;12380;51.118;4.176;2023-06-10T09:20:15;34.00;71.70
24252;DHT22;12380;51.118;4.176;2023-06-10T09:22:41;34.30;71.50
24252;DHT22;12380;51.118;4.176;2023-06-10T09:25:08;34.40;67.20
24252;DHT22;12380;51.118;4.176;2023-06-10T09:27:47;33.60;66.10
24252;DHT22;12380;51.118;4.176;2023-06-10T09:32:56;33.70;63.80
24252;DHT22;12380;51.118;4.176;2023-06-10T09:35:26;33.50;63.00
24252;DHT22;12380;51.118;4.176;2023-06-10T09:37:52;33.70;66.00
24252;DHT22;12380;51.118;4.176;2023-06-10T09:40:21;34.10;63.10
24252;DHT22;12380;51.118;4.176;2023-06-10T09:42:47;34.60;64.20
24252;DHT22;12380;51.118;4.176;2023-06-10T09:45:20;35.00;59.50
24252;DHT22;12380;51.118;4.176;2023-06-10T09:47:50;34.40;54.30
24252;DHT22;12380;51.118;4.176;2023-06-10T09:50:17;33.60;54.50
24252;DHT22;12380;51.118;4.176;2023-06-10T09:52:42;33.60;50.10
24252;DHT22;12380;51.118;4.176;2023-06-10T09:55:08;33.50;52.30
24252;DHT22;12380;51.118;4.176;2023-06-10T09:57:36;33.90;52.60
24252;DHT22;12380;51.118;4.176;2023-06-10T10:00:04;33.80;53.50
24252;DHT22;12380;51.118;4.176;2023-06-10T10:02:29;33.90;49.90
24252;DHT22;12380;51.118;4.176;2023-06-10T10:05:01;34.40;52.00
24252;DHT22;12380;51.118;4.176;2023-06-10T10:07:27;35.10;56.40
24252;DHT22;12380;51.118;4.176;2023-06-10T10:09:53;35.60;50.70
24252;DHT22;12380;51.118;4.176;2023-06-10T10:12:19;35.70;49.50
24252;DHT22;12380;51.118;4.176;2023-06-10T10:14:46;35.70;48.70
24252;DHT22;12380;51.118;4.176;2023-06-10T10:17:11;36.00;48.80
24252;DHT22;12380;51.118;4.176;2023-06-10T10:19:48;36.60;48.80
24252;DHT22;12380;51.118;4.176;2023-06-10T10:22:20;37.40;47.60
24252;DHT22;12380;51.118;4.176;2023-06-10T10:24:51;37.30;45.90
24252;DHT22;12380;51.118;4.176;2023-06-10T10:27:18;37.20;42.50
24252;DHT22;12380;51.118;4.176;2023-06-10T10:29:47;37.50;45.10
24252;DHT22;12380;51.118;4.176;2023-06-10T10:32:13;37.30;44.60
24252;DHT22;12380;51.118;4.176;2023-06-10T10:37:05;36.30;38.10
24252;DHT22;12380;51.118;4.176;2023-06-10T10:39:30;35.20;31.90
24252;DHT22;12380;51.118;4.176;2023-06-10T10:41:58;34.50;32.00
24252;DHT22;12380;51.118;4.176;2023-06-10T10:44:28;34.60;34.10
24252;DHT22;12380;51.118;4.176;2023-06-10T10:46:54;34.60;34.80
24252;DHT22;12380;51.118;4.176;2023-06-10T10:49:21;34.90;38.90
24252;DHT22;12380;51.118;4.176;2023-06-10T10:51:54;35.20;35.80
24252;DHT22;12380;51.118;4.176;2023-06-10T10:54:20;35.40;32.90
24252;DHT22;12380;51.118;4.176;2023-06-10T11:04:58;33.80;26.90
24252;DHT22;12380;51.118;4.176;2023-06-10T11:07:29;33.60;29.60
24252;DHT22;12380;51.118;4.176;2023-06-10T11:10:01;33.70;31.30
24252;DHT22;12380;51.118;4.176;2023-06-10T11:15:05;34.80;29.50
24252;DHT22;12380;51.118;4.176;2023-06-10T11:17:31;34.60;30.60
24252;DHT22;12380;51.118;4.176;2023-06-10T11:19:58;34.80;29.90
24252;DHT22;12380;51.118;4.176;2023-06-10T11:22:26;35.00;30.10
24252;DHT22;12380;51.118;4.176;2023-06-10T11:24:52;34.70;27.50
24252;DHT22;12380;51.118;4.176;2023-06-10T11:27:18;35.30;29.30
24252;DHT22;12380;51.118;4.176;2023-06-10T11:32:33;35.60;28.30
24252;DHT22;12380;51.118;4.176;2023-06-10T11:34:59;35.40;27.10
24252;DHT22;12380;51.118;4.176;2023-06-10T11:37:24;35.50;25.40
24252;DHT22;12380;51.118;4.176;2023-06-10T11:39:53;34.90;25.40
24252;DHT22;12380;51.118;4.176;2023-06-10T11:42:19;34.90;25.60
24252;DHT22;12380;51.118;4.176;2023-06-10T11:44:49;35.20;25.50
24252;DHT22;12380;51.118;4.176;2023-06-10T11:47:15;34.90;25.20
24252;DHT22;12380;51.118;4.176;2023-06-10T11:49:43;34.40;26.10
24252;DHT22;12380;51.118;4.176;2023-06-10T11:52:11;34.50;25.10
24252;DHT22;12380;51.118;4.176;2023-06-10T11:54:39;34.80;29.20
24252;DHT22;12380;51.118;4.176;2023-06-10T11:57:05;35.30;27.20
24252;DHT22;12380;51.118;4.176;2023-06-10T11:59:31;34.90;26.00
24252;DHT22;12380;51.118;4.176;2023-06-10T12:01:56;34.90;23.10
24252;DHT22;12380;51.118;4.176;2023-06-10T12:04:22;34.60;24.60
24252;DHT22;12380;51.118;4.176;2023-06-10T12:06:48;34.50;22.80
24252;DHT22;12380;51.118;4.176;2023-06-10T12:09:21;34.50;24.60
24252;DHT22;12380;51.118;4.176;2023-06-10T12:11:51;34.80;24.10
24252;DHT22;12380;51.118;4.176;2023-06-10T12:14:49;35.10;23.70
24252;DHT22;12380;51.118;4.176;2023-06-10T12:17:02;35.40;24.20
24252;DHT22;12380;51.118;4.176;2023-06-10T12:19:28;35.40;23.70
24252;DHT22;12380;51.118;4.176;2023-06-10T12:21:56;35.60;23.80
24252;DHT22;12380;51.118;4.176;2023-06-10T12:24:22;35.50;22.80
24252;DHT22;12380;51.118;4.176;2023-06-10T12:26:47;34.50;20.40
24252;DHT22;12380;51.118;4.176;2023-06-10T12:34:40;34.30;19.40
24252;DHT22;12380;51.118;4.176;2023-06-10T12:37:12;33.80;19.20
24252;DHT22;12380;51.118;4.176;2023-06-10T12:39:41;33.70;22.80
24252;DHT22;12380;51.118;4.176;2023-06-10T12:42:08;33.70;21.20
24252;DHT22;12380;51.118;4.176;2023-06-10T12:44:35;34.40;22.50
24252;DHT22;12380;51.118;4.176;2023-06-10T12:47:09;34.60;20.70
24252;DHT22;12380;51.118;4.176;2023-06-10T12:49:36;34.50;22.10
24252;DHT22;12380;51.118;4.176;2023-06-10T12:52:04;34.40;20.10
24252;DHT22;12380;51.118;4.176;2023-06-10T12:54:30;34.60;20.80
24252;DHT22;12380;51.118;4.176;2023-06-10T12:56:56;34.70;20.10
24252;DHT22;12380;51.118;4.176;2023-06-10T12:59:23;34.80;21.70
24252;DHT22;12380;51.118;4.176;2023-06-10T13:01:50;34.90;20.30
24252;DHT22;12380;51.118;4.176;2023-06-10T13:04:17;35.00;20.20
24252;DHT22;12380;51.118;4.176;2023-06-10T13:06:43;35.00;19.10
24252;DHT22;12380;51.118;4.176;2023-06-10T13:09:09;35.00;17.90
24252;DHT22;12380;51.118;4.176;2023-06-10T13:11:35;35.10;19.60
24252;DHT22;12380;51.118;4.176;2023-06-10T13:14:01;34.80;17.60
24252;DHT22;12380;51.118;4.176;2023-06-10T13:16:28;34.50;16.90
24252;DHT22;12380;51.118;4.176;2023-06-10T13:18:55;34.70;19.80
24252;DHT22;12380;51.118;4.176;2023-06-10T13:21:21;34.80;20.20
24252;DHT22;12380;51.118;4.176;2023-06-10T13:23:47;35.10;20.70
24252;DHT22;12380;51.118;4.176;2023-06-10T13:26:13;35.50;19.80
24252;DHT22;12380;51.118;4.176;2023-06-10T13:28:39;35.50;18.20
24252;DHT22;12380;51.118;4.176;2023-06-10T13:31:04;35.50;18.90
24252;DHT22;12380;51.118;4.176;2023-06-10T13:33:32;35.90;19.80
24252;DHT22;12380;51.118;4.176;2023-06-10T13:35:58;35.70;18.10
24252;DHT22;12380;51.118;4.176;2023-06-10T13:38:23;35.40;17.80
24252;DHT22;12380;51.118;4.176;2023-06-10T13:40:49;35.70;18.50
24252;DHT22;12380;51.118;4.176;2023-06-10T13:43:17;36.30;20.40
24252;DHT22;12380;51.118;4.176;2023-06-10T13:45:42;36.10;15.70
24252;DHT22;12380;51.118;4.176;2023-06-10T13:48:08;35.30;16.20
24252;DHT22;12380;51.118;4.176;2023-06-10T13:50:34;35.30;16.60
24252;DHT22;12380;51.118;4.176;2023-06-10T13:52:59;35.30;16.50
24252;DHT22;12380;51.118;4.176;2023-06-10T13:55:25;35.20;17.40
24252;DHT22;12380;51.118;4.176;2023-06-10T13:57:51;35.40;18.70
24252;DHT22;12380;51.118;4.176;2023-06-10T14:00:16;35.70;17.50
24252;DHT22;12380;51.118;4.176;2023-06-10T14:02:42;35.30;14.00
24252;DHT22;12380;51.118;4.176;2023-06-10T14:05:07;35.00;15.40
24252;DHT22;12380;51.118;4.176;2023-06-10T14:07:33;35.50;17.30
24252;DHT22;12380;51.118;4.176;2023-06-10T14:09:59;35.50;15.00
24252;DHT22;12380;51.118;4.176;2023-06-10T14:12:25;35.50;18.10
24252;DHT22;12380;51.118;4.176;2023-06-10T14:14:50;35.40;16.10
24252;DHT22;12380;51.118;4.176;2023-06-10T14:17:16;35.90;17.00
24252;DHT22;12380;51.118;4.176;2023-06-10T14:19:41;35.80;17.10
24252;DHT22;12380;51.118;4.176;2023-06-10T14:22:09;35.50;13.40
24252;DHT22;12380;51.118;4.176;2023-06-10T14:24:35;35.10;14.90
24252;DHT22;12380;51.118;4.176;2023-06-10T14:27:01;35.20;15.20
24252;DHT22;12380;51.118;4.176;2023-06-10T14:29:27;35.00;13.90
24252;DHT22;12380;51.118;4.176;2023-06-10T14:31:57;35.00;14.40
24252;DHT22;12380;51.118;4.176;2023-06-10T14:34:25;34.90;15.00
24252;DHT22;12380;51.118;4.176;2023-06-10T14:36:54;34.70;14.80
24252;DHT22;12380;51.118;4.176;2023-06-10T14:39:20;34.50;13.90
24252;DHT22;12380;51.118;4.176;2023-06-10T14:41:45;34.50;14.90
24252;DHT22;12380;51.118;4.176;2023-06-10T14:44:11;34.60;13.30
24252;DHT22;12380;51.118;4.176;2023-06-10T14:46:36;34.60;14.10
24252;DHT22;12380;51.118;4.176;2023-06-10T14:49:02;34.90;15.70
24252;DHT22;12380;51.118;4.176;2023-06-10T14:51:27;34.70;13.50
24252;DHT22;12380;51.118;4.176;2023-06-10T14:53:53;34.40;14.20
24252;DHT22;12380;51.118;4.176;2023-06-10T14:56:19;34.50;13.90
24252;DHT22;12380;51.118;4.176;2023-06-10T14:58:44;34.90;15.40
24252;DHT22;12380;51.118;4.176;2023-06-10T15:01:10;35.20;13.10
24252;DHT22;12380;51.118;4.176;2023-06-10T15:03:35;35.00;13.80
24252;DHT22;12380;51.118;4.176;2023-06-10T15:06:01;34.60;14.50
24252;DHT22;12380;51.118;4.176;2023-06-10T15:08:27;34.60;14.50
24252;DHT22;12380;51.118;4.176;2023-06-10T15:10:54;34.80;14.50
24252;DHT22;12380;51.118;4.176;2023-06-10T15:13:20;34.50;12.20
24252;DHT22;12380;51.118;4.176;2023-06-10T15:15:45;34.20;12.50
24252;DHT22;12380;51.118;4.176;2023-06-10T15:18:11;34.40;11.90
24252;DHT22;12380;51.118;4.176;2023-06-10T15:20:36;34.20;11.40
24252;DHT22;12380;51.118;4.176;2023-06-10T15:23:02;34.30;11.50
24252;DHT22;12380;51.118;4.176;2023-06-10T15:25:28;34.20;12.30
24252;DHT22;12380;51.118;4.176;2023-06-10T15:27:53;34.20;12.10
24252;DHT22;12380;51.118;4.176;2023-06-10T15:30:21;34.20;12.20
24252;DHT22;12380;51.118;4.176;2023-06-10T15:32:46;34.50;11.70
24252;DHT22;12380;51.118;4.176;2023-06-10T15:35:14;34.50;11.90
24252;DHT22;12380;51.118;4.176;2023-06-10T15:37:40;34.50;13.00
24252;DHT22;12380;51.118;4.176;2023-06-10T15:40:08;34.20;11.30
24252;DHT22;12380;51.118;4.176;2023-06-10T15:42:34;34.20;12.90
24252;DHT22;12380;51.118;4.176;2023-06-10T15:44:59;34.60;13.60
24252;DHT22;12380;51.118;4.176;2023-06-10T15:47:25;35.00;12.60
24252;DHT22;12380;51.118;4.176;2023-06-10T15:49:50;35.10;12.70
24252;DHT22;12380;51.118;4.176;2023-06-10T15:52:16;34.90;13.60
24252;DHT22;12380;51.118;4.176;2023-06-10T15:54:42;35.00;11.70
24252;DHT22;12380;51.118;4.176;2023-06-10T15:57:07;34.20;10.20